sensor_id;sensor_type;location;lat;lon;timestamp;temperature;humidity
18103;DHT22;9178;51.120;6.192;2024-03-08T00:00:33;3.60;99.90
18103;DHT22;9178;51.120;6.192;2024-03-08T00:03:00;3.60;99.90
18103;DHT22;9178;51.120;6.192;2024-03-08T00:05:28;3.60;99.90
18103;DHT22;9178;51.120;6.192;2024-03-08T00:07:57;3.50;99.90
18103;DHT22;9178;51.120;6.192;2024-03-08T00:10:25;3.50;99.90
18103;DHT22;9178;51.120;6.192;2024-03-08T00:12:56;3.50;99.90
18103;DHT22;9178;51.120;6.192;2024-03-08T00:15:26;3.50;99.90
18103;DHT22;9178;51.120;6.192;2024-03-08T00:17:55;3.40;99.90
18103;DHT22;9178;51.120;6.192;2024-03-08T00:20:22;3.40;99.90
18103;DHT22;9178;51.120;6.192;2024-03-08T00:22:50;3.40;99.90
18103;DHT22;9178;51.120;6.192;2024-03-08T00:25:17;3.40;99.90
18103;DHT22;9178;51.120;6.192;2024-03-08T00:27:44;3.40;99.90
18103;DHT22;9178;51.120;6.192;2024-03-08T00:30:17;3.30;99.90
18103;DHT22;9178;51.120;6.192;2024-03-08T00:32:45;3.30;99.90
18103;DHT22;9178;51.120;6.192;2024-03-08T00:35:12;3.20;99.90
18103;DHT22;9178;51.120;6.192;2024-03-08T00:37:47;3.20;99.90
18103;DHT22;9178;51.120;6.192;2024-03-08T00:40:17;3.10;99.90
18103;DHT22;9178;51.120;6.192;2024-03-08T00:42:46;3.10;99.90
18103;DHT22;9178;51.120;6.192;2024-03-08T00:45:13;3.10;99.90
18103;DHT22;9178;51.120;6.192;2024-03-08T00:47:41;3.00;99.90
18103;DHT22;9178;51.120;6.192;2024-03-08T00:50:12;3.00;99.90
18103;DHT22;9178;51.120;6.192;2024-03-08T00:52:40;3.00;99.90
18103;DHT22;9178;51.120;6.192;2024-03-08T00:55:11;2.90;99.90
18103;DHT22;9178;51.120;6.192;2024-03-08T00:57:38;2.90;99.90
18103;DHT22;9178;51.120;6.192;2024-03-08T01:00:11;2.90;99.90
18103;DHT22;9178;51.120;6.192;2024-03-08T01:02:43;2.90;99.90
18103;DHT22;9178;51.120;6.192;2024-03-08T01:05:24;2.90;99.90
18103;DHT22;9178;51.120;6.192;2024-03-08T01:07:59;2.80;99.90
18103;DHT22;9178;51.120;6.192;2024-03-08T01:10:26;2.80;99.90
18103;DHT22;9178;51.120;6.192;2024-03-08T01:12:54;2.80;99.90
18103;DHT22;9178;51.120;6.192;2024-03-08T01:15:25;2.80;99.90
18103;DHT22;9178;51.120;6.192;2024-03-08T01:17:54;2.70;99.90
18103;DHT22;9178;51.120;6.192;2024-03-08T01:20:24;2.70;99.90
18103;DHT22;9178;51.120;6.192;2024-03-08T01:22:51;2.70;99.90
18103;DHT22;9178;51.120;6.192;2024-03-08T01:25:22;2.70;99.90
18103;DHT22;9178;51.120;6.192;2024-03-08T01:27:53;2.70;99.90
18103;DHT22;9178;51.120;6.192;2024-03-08T01:30:22;2.70;99.90
18103;DHT22;9178;51.120;6.192;2024-03-08T01:32:49;2.60;99.90
18103;DHT22;9178;51.120;6.192;2024-03-08T01:35:16;2.70;99.90
18103;DHT22;9178;51.120;6.192;2024-03-08T01:37:46;2.70;99.90
18103;DHT22;9178;51.120;6.192;2024-03-08T01:40:13;2.70;99.90
18103;DHT22;9178;51.120;6.192;2024-03-08T01:42:41;2.70;99.90
18103;DHT22;9178;51.120;6.192;2024-03-08T01:45:09;2.70;99.90
18103;DHT22;9178;51.120;6.192;2024-03-08T01:47:37;2.70;99.90
18103;DHT22;9178;51.120;6.192;2024-03-08T01:50:14;2.70;99.90
18103;DHT22;9178;51.120;6.192;2024-03-08T01:52:46;2.70;99.90
18103;DHT22;9178;51.120;6.192;2024-03-08T01:55:19;2.70;99.90
18103;DHT22;9178;51.120;6.192;2024-03-08T01:57:47;2.70;99.90
18103;DHT22;9178;51.120;6.192;2024-03-08T02:00:19;2.70;99.90
18103;DHT22;9178;51.120;6.192;2024-03-08T02:02:47;2.70;99.90
18103;DHT22;9178;51.120;6.192;2024-03-08T02:05:16;2.70;99.90
18103;DHT22;9178;51.120;6.192;2024-03-08T02:07:54;2.70;99.90
18103;DHT22;9178;51.120;6.192;2024-03-08T02:10:21;2.70;99.90
18103;DHT22;9178;51.120;6.192;2024-03-08T02:12:51;2.70;99.90
18103;DHT22;9178;51.120;6.192;2024-03-08T02:15:20;2.60;99.90
18103;DHT22;9178;51.120;6.192;2024-03-08T02:17:48;2.60;99.90
18103;DHT22;9178;51.120;6.192;2024-03-08T02:20:19;2.60;99.90
18103;DHT22;9178;51.120;6.192;2024-03-08T02:22:48;2.60;99.90
18103;DHT22;9178;51.120;6.192;2024-03-08T02:25:19;2.60;99.90
18103;DHT22;9178;51.120;6.192;2024-03-08T02:27:47;2.50;99.90
18103;DHT22;9178;51.120;6.192;2024-03-08T02:30:17;2.50;99.90
18103;DHT22;9178;51.120;6.192;2024-03-08T02:32:52;2.50;99.90
18103;DHT22;9178;51.120;6.192;2024-03-08T02:35:20;2.50;99.90
18103;DHT22;9178;51.120;6.192;2024-03-08T02:37:59;2.40;99.90
18103;DHT22;9178;51.120;6.192;2024-03-08T02:40:29;2.40;99.90
18103;DHT22;9178;51.120;6.192;2024-03-08T02:43:10;2.40;99.90
18103;DHT22;9178;51.120;6.192;2024-03-08T02:45:46;2.30;99.90
18103;DHT22;9178;51.120;6.192;2024-03-08T02:48:14;2.30;99.90
18103;DHT22;9178;51.120;6.192;2024-03-08T02:50:42;2.30;99.90
18103;DHT22;9178;51.120;6.192;2024-03-08T02:53:12;2.30;99.90
18103;DHT22;9178;51.120;6.192;2024-03-08T02:55:40;2.30;99.90
18103;DHT22;9178;51.120;6.192;2024-03-08T02:58:08;2.30;99.90
18103;DHT22;9178;51.120;6.192;2024-03-08T03:00:36;2.20;99.90
18103;DHT22;9178;51.120;6.192;2024-03-08T03:03:06;2.20;99.90
18103;DHT22;9178;51.120;6.192;2024-03-08T03:05:34;2.30;99.90
18103;DHT22;9178;51.120;6.192;2024-03-08T03:08:01;2.20;99.90
18103;DHT22;9178;51.120;6.192;2024-03-08T03:10:31;2.20;99.90
18103;DHT22;9178;51.120;6.192;2024-03-08T03:12:58;2.20;99.90
18103;DHT22;9178;51.120;6.192;2024-03-08T03:15:25;2.20;99.90
18103;DHT22;9178;51.120;6.192;2024-03-08T03:17:53;2.20;99.90
18103;DHT22;9178;51.120;6.192;2024-03-08T03:20:21;2.10;99.90
18103;DHT22;9178;51.120;6.192;2024-03-08T03:22:52;2.10;99.90
18103;DHT22;9178;51.120;6.192;2024-03-08T03:25:20;2.10;99.90
18103;DHT22;9178;51.120;6.192;2024-03-08T03:27:52;2.10;99.90
18103;DHT22;9178;51.120;6.192;2024-03-08T03:30:22;2.10;99.90
18103;DHT22;9178;51.120;6.192;2024-03-08T03:32:52;2.00;99.90
18103;DHT22;9178;51.120;6.192;2024-03-08T03:35:22;2.00;99.90
18103;DHT22;9178;51.120;6.192;2024-03-08T03:37:52;2.00;99.90
18103;DHT22;9178;51.120;6.192;2024-03-08T03:40:31;2.00;99.90
18103;DHT22;9178;51.120;6.192;2024-03-08T03:43:00;2.00;99.90
18103;DHT22;9178;51.120;6.192;2024-03-08T03:45:28;2.00;99.90
18103;DHT22;9178;51.120;6.192;2024-03-08T03:47:59;1.90;99.90
18103;DHT22;9178;51.120;6.192;2024-03-08T03:50:26;1.90;99.90
18103;DHT22;9178;51.120;6.192;2024-03-08T03:52:53;1.90;99.90
18103;DHT22;9178;51.120;6.192;2024-03-08T03:55:21;1.90;99.90
18103;DHT22;9178;51.120;6.192;2024-03-08T03:57:48;1.80;99.90
18103;DHT22;9178;51.120;6.192;2024-03-08T04:00:17;1.80;99.90
18103;DHT22;9178;51.120;6.192;2024-03-08T04:02:45;1.80;99.90
18103;DHT22;9178;51.120;6.192;2024-03-08T04:05:12;1.80;99.90
18103;DHT22;9178;51.120;6.192;2024-03-08T04:07:39;1.80;99.90
18103;DHT22;9178;51.120;6.192;2024-03-08T04:10:08;1.70;99.90
18103;DHT22;9178;51.120;6.192;2024-03-08T04:12:36;1.60;99.90
18103;DHT22;9178;51.120;6.192;2024-03-08T04:15:05;1.60;99.90
18103;DHT22;9178;51.120;6.192;2024-03-08T04:17:34;1.60;99.90
18103;DHT22;9178;51.120;6.192;2024-03-08T04:20:03;1.60;99.90
18103;DHT22;9178;51.120;6.192;2024-03-08T04:22:35;1.60;99.90
18103;DHT22;9178;51.120;6.192;2024-03-08T04:25:03;1.60;99.90
18103;DHT22;9178;51.120;6.192;2024-03-08T04:27:32;1.50;99.90
18103;DHT22;9178;51.120;6.192;2024-03-08T04:30:00;1.50;99.90
18103;DHT22;9178;51.120;6.192;2024-03-08T04:32:27;1.50;99.90
18103;DHT22;9178;51.120;6.192;2024-03-08T04:34:56;1.60;99.90
18103;DHT22;9178;51.120;6.192;2024-03-08T04:37:24;1.50;99.90
18103;DHT22;9178;51.120;6.192;2024-03-08T04:39:51;1.50;99.90
18103;DHT22;9178;51.120;6.192;2024-03-08T04:42:18;1.50;99.90
18103;DHT22;9178;51.120;6.192;2024-03-08T04:44:45;1.50;99.90
18103;DHT22;9178;51.120;6.192;2024-03-08T04:47:13;1.60;99.90
18103;DHT22;9178;51.120;6.192;2024-03-08T04:49:40;1.60;99.90
18103;DHT22;9178;51.120;6.192;2024-03-08T04:52:08;1.70;99.90
18103;DHT22;9178;51.120;6.192;2024-03-08T04:54:35;1.70;99.90
18103;DHT22;9178;51.120;6.192;2024-03-08T04:57:03;1.70;99.90
18103;DHT22;9178;51.120;6.192;2024-03-08T04:59:30;1.70;99.90
18103;DHT22;9178;51.120;6.192;2024-03-08T05:01:57;1.70;99.90
18103;DHT22;9178;51.120;6.192;2024-03-08T05:04:24;1.70;99.90
18103;DHT22;9178;51.120;6.192;2024-03-08T05:06:52;1.70;99.90
18103;DHT22;9178;51.120;6.192;2024-03-08T05:09:21;1.60;99.90
18103;DHT22;9178;51.120;6.192;2024-03-08T05:11:49;1.60;99.90
18103;DHT22;9178;51.120;6.192;2024-03-08T05:14:17;1.60;99.90
18103;DHT22;9178;51.120;6.192;2024-03-08T05:16:46;1.60;99.90
18103;DHT22;9178;51.120;6.192;2024-03-08T05:19:14;1.60;99.90
18103;DHT22;9178;51.120;6.192;2024-03-08T05:21:43;1.60;99.90
18103;DHT22;9178;51.120;6.192;2024-03-08T05:24:11;1.50;99.90
18103;DHT22;9178;51.120;6.192;2024-03-08T05:26:40;1.50;99.90
18103;DHT22;9178;51.120;6.192;2024-03-08T05:29:08;1.50;99.90
18103;DHT22;9178;51.120;6.192;2024-03-08T05:31:48;1.50;99.90
18103;DHT22;9178;51.120;6.192;2024-03-08T05:34:17;1.40;99.90
18103;DHT22;9178;51.120;6.192;2024-03-08T05:36:48;1.50;99.90
18103;DHT22;9178;51.120;6.192;2024-03-08T05:39:16;1.40;99.90
18103;DHT22;9178;51.120;6.192;2024-03-08T05:41:45;1.40;99.90
18103;DHT22;9178;51.120;6.192;2024-03-08T05:44:13;1.40;99.90
18103;DHT22;9178;51.120;6.192;2024-03-08T05:46:42;1.40;99.90
18103;DHT22;9178;51.120;6.192;2024-03-08T05:49:10;1.30;99.90
18103;DHT22;9178;51.120;6.192;2024-03-08T05:51:38;1.30;99.90
18103;DHT22;9178;51.120;6.192;2024-03-08T05:54:07;1.30;99.90
18103;DHT22;9178;51.120;6.192;2024-03-08T05:56:35;1.20;99.90
18103;DHT22;9178;51.120;6.192;2024-03-08T05:59:04;1.20;99.90
18103;DHT22;9178;51.120;6.192;2024-03-08T06:01:31;1.20;99.90
18103;DHT22;9178;51.120;6.192;2024-03-08T06:04:02;1.20;99.90
18103;DHT22;9178;51.120;6.192;2024-03-08T06:06:29;1.20;99.90
18103;DHT22;9178;51.120;6.192;2024-03-08T06:08:57;1.20;99.90
18103;DHT22;9178;51.120;6.192;2024-03-08T06:11:25;1.30;99.90
18103;DHT22;9178;51.120;6.192;2024-03-08T06:13:54;1.30;99.90
18103;DHT22;9178;51.120;6.192;2024-03-08T06:16:27;1.30;99.90
18103;DHT22;9178;51.120;6.192;2024-03-08T06:18:58;1.30;99.90
18103;DHT22;9178;51.120;6.192;2024-03-08T06:21:26;1.30;99.90
18103;DHT22;9178;51.120;6.192;2024-03-08T06:23:55;1.30;99.90
18103;DHT22;9178;51.120;6.192;2024-03-08T06:26:23;1.30;99.90
18103;DHT22;9178;51.120;6.192;2024-03-08T06:28:53;1.30;99.90
18103;DHT22;9178;51.120;6.192;2024-03-08T06:31:22;1.40;99.90
18103;DHT22;9178;51.120;6.192;2024-03-08T06:33:51;1.50;99.90
18103;DHT22;9178;51.120;6.192;2024-03-08T06:36:20;1.60;99.90
18103;DHT22;9178;51.120;6.192;2024-03-08T06:38:47;1.70;99.90
18103;DHT22;9178;51.120;6.192;2024-03-08T06:41:17;1.70;99.90
18103;DHT22;9178;51.120;6.192;2024-03-08T06:43:45;1.80;99.90
18103;DHT22;9178;51.120;6.192;2024-03-08T06:46:15;1.90;99.90
18103;DHT22;9178;51.120;6.192;2024-03-08T06:48:42;2.00;99.90
18103;DHT22;9178;51.120;6.192;2024-03-08T06:51:12;2.00;99.90
18103;DHT22;9178;51.120;6.192;2024-03-08T06:53:43;2.00;99.90
18103;DHT22;9178;51.120;6.192;2024-03-08T06:56:11;2.00;99.90
18103;DHT22;9178;51.120;6.192;2024-03-08T06:58:39;2.00;99.90
18103;DHT22;9178;51.120;6.192;2024-03-08T07:01:06;2.00;99.90
18103;DHT22;9178;51.120;6.192;2024-03-08T07:03:41;2.10;99.90
18103;DHT22;9178;51.120;6.192;2024-03-08T07:06:12;2.20;99.90
18103;DHT22;9178;51.120;6.192;2024-03-08T07:08:43;2.30;99.90
18103;DHT22;9178;51.120;6.192;2024-03-08T07:11:11;2.40;99.90
18103;DHT22;9178;51.120;6.192;2024-03-08T07:13:41;2.70;99.90
18103;DHT22;9178;51.120;6.192;2024-03-08T07:16:08;3.00;99.90
18103;DHT22;9178;51.120;6.192;2024-03-08T07:18:37;3.30;99.90
18103;DHT22;9178;51.120;6.192;2024-03-08T07:21:09;3.60;99.90
18103;DHT22;9178;51.120;6.192;2024-03-08T07:23:37;3.80;99.90
18103;DHT22;9178;51.120;6.192;2024-03-08T07:26:28;4.20;99.90
18103;DHT22;9178;51.120;6.192;2024-03-08T07:28:57;4.40;99.90
18103;DHT22;9178;51.120;6.192;2024-03-08T07:31:26;4.60;99.90
18103;DHT22;9178;51.120;6.192;2024-03-08T07:34:04;4.80;99.90
18103;DHT22;9178;51.120;6.192;2024-03-08T07:36:33;5.30;99.90
18103;DHT22;9178;51.120;6.192;2024-03-08T07:39:11;5.50;99.90
18103;DHT22;9178;51.120;6.192;2024-03-08T07:41:39;5.80;99.90
18103;DHT22;9178;51.120;6.192;2024-03-08T07:44:07;6.20;99.90
18103;DHT22;9178;51.120;6.192;2024-03-08T07:46:36;6.40;99.90
18103;DHT22;9178;51.120;6.192;2024-03-08T07:49:04;6.70;99.90
18103;DHT22;9178;51.120;6.192;2024-03-08T07:51:32;6.90;99.90
18103;DHT22;9178;51.120;6.192;2024-03-08T07:54:02;7.20;99.90
18103;DHT22;9178;51.120;6.192;2024-03-08T07:56:34;7.50;99.90
18103;DHT22;9178;51.120;6.192;2024-03-08T07:59:02;7.40;99.90
18103;DHT22;9178;51.120;6.192;2024-03-08T08:01:31;7.20;99.90
18103;DHT22;9178;51.120;6.192;2024-03-08T08:03:59;6.90;99.90
18103;DHT22;9178;51.120;6.192;2024-03-08T08:06:27;6.80;99.90
18103;DHT22;9178;51.120;6.192;2024-03-08T08:08:57;7.00;99.90
18103;DHT22;9178;51.120;6.192;2024-03-08T08:11:27;6.90;99.90
18103;DHT22;9178;51.120;6.192;2024-03-08T08:13:55;6.90;99.90
18103;DHT22;9178;51.120;6.192;2024-03-08T08:16:23;7.20;99.90
18103;DHT22;9178;51.120;6.192;2024-03-08T08:18:51;7.40;99.90
18103;DHT22;9178;51.120;6.192;2024-03-08T08:21:18;7.30;99.90
18103;DHT22;9178;51.120;6.192;2024-03-08T08:23:50;7.40;99.90
18103;DHT22;9178;51.120;6.192;2024-03-08T08:26:17;7.50;99.90
18103;DHT22;9178;51.120;6.192;2024-03-08T08:28:46;7.40;99.90
18103;DHT22;9178;51.120;6.192;2024-03-08T08:31:15;7.60;99.90
18103;DHT22;9178;51.120;6.192;2024-03-08T08:33:42;7.60;99.90
18103;DHT22;9178;51.120;6.192;2024-03-08T08:36:10;7.70;99.90
18103;DHT22;9178;51.120;6.192;2024-03-08T08:38:38;7.70;99.90
18103;DHT22;9178;51.120;6.192;2024-03-08T08:41:05;7.70;99.90
18103;DHT22;9178;51.120;6.192;2024-03-08T08:43:33;7.70;99.90
18103;DHT22;9178;51.120;6.192;2024-03-08T08:46:01;7.70;99.90
18103;DHT22;9178;51.120;6.192;2024-03-08T08:48:30;7.80;99.90
18103;DHT22;9178;51.120;6.192;2024-03-08T08:50:57;7.90;99.90
18103;DHT22;9178;51.120;6.192;2024-03-08T08:53:25;7.60;99.90
18103;DHT22;9178;51.120;6.192;2024-03-08T08:55:52;7.60;99.90
18103;DHT22;9178;51.120;6.192;2024-03-08T08:58:19;7.60;99.90
18103;DHT22;9178;51.120;6.192;2024-03-08T09:00:48;7.60;99.90
18103;DHT22;9178;51.120;6.192;2024-03-08T09:03:17;7.50;99.90
18103;DHT22;9178;51.120;6.192;2024-03-08T09:05:44;7.30;99.90
18103;DHT22;9178;51.120;6.192;2024-03-08T09:08:12;7.20;99.90
18103;DHT22;9178;51.120;6.192;2024-03-08T09:10:39;7.30;99.90
18103;DHT22;9178;51.120;6.192;2024-03-08T09:13:06;7.30;99.90
18103;DHT22;9178;51.120;6.192;2024-03-08T09:15:36;7.20;99.90
18103;DHT22;9178;51.120;6.192;2024-03-08T09:18:06;7.10;99.90
18103;DHT22;9178;51.120;6.192;2024-03-08T09:20:35;7.10;99.90
18103;DHT22;9178;51.120;6.192;2024-03-08T09:23:03;7.00;99.90
18103;DHT22;9178;51.120;6.192;2024-03-08T09:25:31;7.10;99.90
18103;DHT22;9178;51.120;6.192;2024-03-08T09:27:58;7.20;99.90
18103;DHT22;9178;51.120;6.192;2024-03-08T09:30:25;7.00;99.90
18103;DHT22;9178;51.120;6.192;2024-03-08T09:32:54;7.10;99.90
18103;DHT22;9178;51.120;6.192;2024-03-08T09:35:22;7.00;99.90
18103;DHT22;9178;51.120;6.192;2024-03-08T09:37:51;7.20;99.90
18103;DHT22;9178;51.120;6.192;2024-03-08T09:40:19;7.40;99.90
18103;DHT22;9178;51.120;6.192;2024-03-08T09:42:49;7.60;99.90
18103;DHT22;9178;51.120;6.192;2024-03-08T09:45:20;7.80;99.90
18103;DHT22;9178;51.120;6.192;2024-03-08T09:47:49;7.70;99.90
18103;DHT22;9178;51.120;6.192;2024-03-08T09:50:16;7.80;99.90
18103;DHT22;9178;51.120;6.192;2024-03-08T09:52:47;7.70;99.90
18103;DHT22;9178;51.120;6.192;2024-03-08T09:55:17;7.80;99.90
18103;DHT22;9178;51.120;6.192;2024-03-08T09:57:48;7.90;99.90
18103;DHT22;9178;51.120;6.192;2024-03-08T10:00:29;8.20;99.90
18103;DHT22;9178;51.120;6.192;2024-03-08T10:03:00;8.60;99.90
18103;DHT22;9178;51.120;6.192;2024-03-08T10:05:31;8.60;99.90
18103;DHT22;9178;51.120;6.192;2024-03-08T10:08:02;8.80;99.90
18103;DHT22;9178;51.120;6.192;2024-03-08T10:10:33;8.70;99.90
18103;DHT22;9178;51.120;6.192;2024-03-08T10:13:10;8.70;99.90
18103;DHT22;9178;51.120;6.192;2024-03-08T10:15:39;8.70;99.90
18103;DHT22;9178;51.120;6.192;2024-03-08T10:18:07;9.00;99.90
18103;DHT22;9178;51.120;6.192;2024-03-08T10:20:36;9.20;99.90
18103;DHT22;9178;51.120;6.192;2024-03-08T10:23:04;9.50;99.90
18103;DHT22;9178;51.120;6.192;2024-03-08T10:25:33;9.80;99.90
18103;DHT22;9178;51.120;6.192;2024-03-08T10:28:02;9.80;99.90
18103;DHT22;9178;51.120;6.192;2024-03-08T10:30:31;10.10;99.90
18103;DHT22;9178;51.120;6.192;2024-03-08T10:32:58;10.00;99.90
18103;DHT22;9178;51.120;6.192;2024-03-08T10:35:26;10.10;99.90
18103;DHT22;9178;51.120;6.192;2024-03-08T10:37:57;10.30;99.90
18103;DHT22;9178;51.120;6.192;2024-03-08T10:40:27;10.50;99.90
18103;DHT22;9178;51.120;6.192;2024-03-08T10:42:57;10.40;99.90
18103;DHT22;9178;51.120;6.192;2024-03-08T10:45:31;10.10;99.90
18103;DHT22;9178;51.120;6.192;2024-03-08T10:48:20;10.20;99.90
18103;DHT22;9178;51.120;6.192;2024-03-08T10:50:54;10.30;99.90
18103;DHT22;9178;51.120;6.192;2024-03-08T10:53:23;10.20;99.90
18103;DHT22;9178;51.120;6.192;2024-03-08T10:55:52;10.40;99.90
18103;DHT22;9178;51.120;6.192;2024-03-08T10:58:26;10.70;99.90
18103;DHT22;9178;51.120;6.192;2024-03-08T11:00:54;11.10;99.90
18103;DHT22;9178;51.120;6.192;2024-03-08T11:03:44;11.10;99.90
18103;DHT22;9178;51.120;6.192;2024-03-08T11:06:15;11.20;99.90
18103;DHT22;9178;51.120;6.192;2024-03-08T11:08:42;11.50;99.90
18103;DHT22;9178;51.120;6.192;2024-03-08T11:11:26;11.50;99.90
18103;DHT22;9178;51.120;6.192;2024-03-08T11:14:01;11.70;99.90
18103;DHT22;9178;51.120;6.192;2024-03-08T11:16:47;11.50;99.90
18103;DHT22;9178;51.120;6.192;2024-03-08T11:19:25;11.40;99.90
18103;DHT22;9178;51.120;6.192;2024-03-08T11:22:03;11.60;99.90
18103;DHT22;9178;51.120;6.192;2024-03-08T11:24:39;11.80;99.90
18103;DHT22;9178;51.120;6.192;2024-03-08T11:27:08;12.10;99.90
18103;DHT22;9178;51.120;6.192;2024-03-08T11:29:40;11.90;99.90
18103;DHT22;9178;51.120;6.192;2024-03-08T11:32:08;11.80;99.90
18103;DHT22;9178;51.120;6.192;2024-03-08T11:34:35;11.80;99.90
18103;DHT22;9178;51.120;6.192;2024-03-08T11:37:04;11.60;99.90
18103;DHT22;9178;51.120;6.192;2024-03-08T11:39:36;11.50;99.90
18103;DHT22;9178;51.120;6.192;2024-03-08T11:42:05;11.60;99.90
18103;DHT22;9178;51.120;6.192;2024-03-08T11:44:32;11.60;99.90
18103;DHT22;9178;51.120;6.192;2024-03-08T11:47:01;11.40;99.90
18103;DHT22;9178;51.120;6.192;2024-03-08T11:49:32;11.30;99.90
18103;DHT22;9178;51.120;6.192;2024-03-08T11:52:00;11.40;99.90
18103;DHT22;9178;51.120;6.192;2024-03-08T11:54:27;11.60;99.90
18103;DHT22;9178;51.120;6.192;2024-03-08T11:56:56;11.70;99.90
18103;DHT22;9178;51.120;6.192;2024-03-08T11:59:27;12.10;99.90
18103;DHT22;9178;51.120;6.192;2024-03-08T12:02:01;12.90;99.90
18103;DHT22;9178;51.120;6.192;2024-03-08T12:04:29;13.30;99.90
18103;DHT22;9178;51.120;6.192;2024-03-08T12:06:59;13.20;99.90
18103;DHT22;9178;51.120;6.192;2024-03-08T12:09:28;12.90;99.90
18103;DHT22;9178;51.120;6.192;2024-03-08T12:11:58;12.70;99.90
18103;DHT22;9178;51.120;6.192;2024-03-08T12:14:26;12.70;99.90
18103;DHT22;9178;51.120;6.192;2024-03-08T12:16:53;12.70;99.90
18103;DHT22;9178;51.120;6.192;2024-03-08T12:19:22;12.70;99.90
18103;DHT22;9178;51.120;6.192;2024-03-08T12:21:49;12.50;99.90
18103;DHT22;9178;51.120;6.192;2024-03-08T12:24:17;12.60;99.90
18103;DHT22;9178;51.120;6.192;2024-03-08T12:26:45;12.50;99.90
18103;DHT22;9178;51.120;6.192;2024-03-08T12:29:18;12.40;99.90
18103;DHT22;9178;51.120;6.192;2024-03-08T12:31:50;12.50;99.90
18103;DHT22;9178;51.120;6.192;2024-03-08T12:34:18;12.50;99.90
18103;DHT22;9178;51.120;6.192;2024-03-08T12:36:48;12.40;99.90
18103;DHT22;9178;51.120;6.192;2024-03-08T12:39:16;12.20;99.90
18103;DHT22;9178;51.120;6.192;2024-03-08T12:41:48;12.30;99.90
18103;DHT22;9178;51.120;6.192;2024-03-08T12:44:17;12.40;99.90
18103;DHT22;9178;51.120;6.192;2024-03-08T12:46:44;12.20;99.90
18103;DHT22;9178;51.120;6.192;2024-03-08T12:49:12;12.40;99.90
18103;DHT22;9178;51.120;6.192;2024-03-08T12:51:43;12.50;99.90
18103;DHT22;9178;51.120;6.192;2024-03-08T12:54:12;12.70;99.90
18103;DHT22;9178;51.120;6.192;2024-03-08T12:56:42;12.90;99.90
18103;DHT22;9178;51.120;6.192;2024-03-08T12:59:09;13.30;99.90
18103;DHT22;9178;51.120;6.192;2024-03-08T13:01:37;13.70;99.90
18103;DHT22;9178;51.120;6.192;2024-03-08T13:04:05;13.60;99.90
18103;DHT22;9178;51.120;6.192;2024-03-08T13:06:36;14.00;99.90
18103;DHT22;9178;51.120;6.192;2024-03-08T13:09:04;14.40;99.90
18103;DHT22;9178;51.120;6.192;2024-03-08T13:11:36;14.20;99.90
18103;DHT22;9178;51.120;6.192;2024-03-08T13:14:03;13.90;99.90
18103;DHT22;9178;51.120;6.192;2024-03-08T13:16:33;13.70;99.90
18103;DHT22;9178;51.120;6.192;2024-03-08T13:19:03;13.40;99.90
18103;DHT22;9178;51.120;6.192;2024-03-08T13:21:30;13.10;99.90
18103;DHT22;9178;51.120;6.192;2024-03-08T13:23:57;12.90;99.90
18103;DHT22;9178;51.120;6.192;2024-03-08T13:26:26;12.80;99.90
18103;DHT22;9178;51.120;6.192;2024-03-08T13:28:59;12.70;99.90
18103;DHT22;9178;51.120;6.192;2024-03-08T13:31:27;12.80;99.90
18103;DHT22;9178;51.120;6.192;2024-03-08T13:33:54;12.80;99.90
18103;DHT22;9178;51.120;6.192;2024-03-08T13:36:24;12.70;99.90
18103;DHT22;9178;51.120;6.192;2024-03-08T13:38:56;12.60;99.90
18103;DHT22;9178;51.120;6.192;2024-03-08T13:41:24;12.30;99.90
18103;DHT22;9178;51.120;6.192;2024-03-08T13:43:52;12.30;99.90
18103;DHT22;9178;51.120;6.192;2024-03-08T13:46:23;12.30;99.90
18103;DHT22;9178;51.120;6.192;2024-03-08T13:48:52;12.40;99.90
18103;DHT22;9178;51.120;6.192;2024-03-08T13:51:21;12.50;99.90
18103;DHT22;9178;51.120;6.192;2024-03-08T13:53:51;12.40;99.90
18103;DHT22;9178;51.120;6.192;2024-03-08T13:56:18;12.60;99.90
18103;DHT22;9178;51.120;6.192;2024-03-08T13:58:45;12.60;99.90
18103;DHT22;9178;51.120;6.192;2024-03-08T14:01:13;12.70;99.90
18103;DHT22;9178;51.120;6.192;2024-03-08T14:03:41;12.80;99.90
18103;DHT22;9178;51.120;6.192;2024-03-08T14:06:09;13.10;99.90
18103;DHT22;9178;51.120;6.192;2024-03-08T14:08:36;13.20;99.90
18103;DHT22;9178;51.120;6.192;2024-03-08T14:11:04;13.20;99.90
18103;DHT22;9178;51.120;6.192;2024-03-08T14:13:40;13.40;99.90
18103;DHT22;9178;51.120;6.192;2024-03-08T14:16:10;13.60;99.90
18103;DHT22;9178;51.120;6.192;2024-03-08T14:18:38;13.70;99.90
18103;DHT22;9178;51.120;6.192;2024-03-08T14:21:07;13.70;99.90
18103;DHT22;9178;51.120;6.192;2024-03-08T14:23:36;13.80;99.90
18103;DHT22;9178;51.120;6.192;2024-03-08T14:26:03;13.70;99.90
18103;DHT22;9178;51.120;6.192;2024-03-08T14:28:33;13.50;99.90
18103;DHT22;9178;51.120;6.192;2024-03-08T14:31:00;13.20;99.90
18103;DHT22;9178;51.120;6.192;2024-03-08T14:33:29;13.00;99.90
18103;DHT22;9178;51.120;6.192;2024-03-08T14:35:57;13.20;99.90
18103;DHT22;9178;51.120;6.192;2024-03-08T14:38:26;13.30;99.90
18103;DHT22;9178;51.120;6.192;2024-03-08T14:40:54;13.50;99.90
18103;DHT22;9178;51.120;6.192;2024-03-08T14:43:21;13.60;99.90
18103;DHT22;9178;51.120;6.192;2024-03-08T14:45:48;13.60;99.90
18103;DHT22;9178;51.120;6.192;2024-03-08T14:48:16;13.80;99.90
18103;DHT22;9178;51.120;6.192;2024-03-08T14:50:43;13.80;99.90
18103;DHT22;9178;51.120;6.192;2024-03-08T14:53:12;13.80;99.90
18103;DHT22;9178;51.120;6.192;2024-03-08T14:55:43;13.30;99.90
18103;DHT22;9178;51.120;6.192;2024-03-08T14:58:12;13.10;99.90
18103;DHT22;9178;51.120;6.192;2024-03-08T15:00:39;13.00;99.90
18103;DHT22;9178;51.120;6.192;2024-03-08T15:03:07;12.80;99.90
18103;DHT22;9178;51.120;6.192;2024-03-08T15:05:38;12.90;99.90
18103;DHT22;9178;51.120;6.192;2024-03-08T15:08:08;12.90;99.90
18103;DHT22;9178;51.120;6.192;2024-03-08T15:10:46;12.80;99.90
18103;DHT22;9178;51.120;6.192;2024-03-08T15:13:19;12.50;99.90
18103;DHT22;9178;51.120;6.192;2024-03-08T15:15:49;12.30;99.90
18103;DHT22;9178;51.120;6.192;2024-03-08T15:18:22;12.20;99.90
18103;DHT22;9178;51.120;6.192;2024-03-08T15:20:52;12.10;99.90
18103;DHT22;9178;51.120;6.192;2024-03-08T15:23:19;12.00;99.90
18103;DHT22;9178;51.120;6.192;2024-03-08T15:25:48;11.80;99.90
18103;DHT22;9178;51.120;6.192;2024-03-08T15:28:16;11.70;99.90
18103;DHT22;9178;51.120;6.192;2024-03-08T15:30:46;11.60;99.90
18103;DHT22;9178;51.120;6.192;2024-03-08T15:33:19;11.60;99.90
18103;DHT22;9178;51.120;6.192;2024-03-08T15:35:50;11.60;99.90
18103;DHT22;9178;51.120;6.192;2024-03-08T15:38:23;11.60;99.90
18103;DHT22;9178;51.120;6.192;2024-03-08T15:40:54;11.70;99.90
18103;DHT22;9178;51.120;6.192;2024-03-08T15:43:21;11.60;99.90
18103;DHT22;9178;51.120;6.192;2024-03-08T15:45:50;11.60;99.90
18103;DHT22;9178;51.120;6.192;2024-03-08T15:48:18;11.50;99.90
18103;DHT22;9178;51.120;6.192;2024-03-08T15:50:46;11.50;99.90
18103;DHT22;9178;51.120;6.192;2024-03-08T15:53:13;11.50;99.90
18103;DHT22;9178;51.120;6.192;2024-03-08T15:55:41;11.70;99.90
18103;DHT22;9178;51.120;6.192;2024-03-08T15:58:11;11.60;99.90
18103;DHT22;9178;51.120;6.192;2024-03-08T16:00:38;11.60;99.90
18103;DHT22;9178;51.120;6.192;2024-03-08T16:03:12;11.50;99.90
18103;DHT22;9178;51.120;6.192;2024-03-08T16:05:41;11.50;99.90
18103;DHT22;9178;51.120;6.192;2024-03-08T16:08:10;11.40;99.90
18103;DHT22;9178;51.120;6.192;2024-03-08T16:10:41;11.30;99.90